Holmen, WI (54636)

4:52 PM CDT on July 30, 2015 (GMT -0500)
Holmen | | Change Station
CLOSE
Current Station
Personal Weather Station
Location: Holmen, WI
Elevation: 705 ft
Nearby Weather Stations

Elev 705 ft 43.96 °N, 91.26 °W | Updated 2 seconds ago

Clear
Clear
85.5 °F
Feels Like 85 °F
N
7.6
Wind Variable Wind from West
Gusts 7.6 mph

Today
High -- | Low -- °F
--% Chance of Precip.
Yesterday
High -- | Low -- °F
Precip. -- in
5:50 AM 8:31 PM
Full, 100% visible
Pressure 29.99 in
Visibility 10.0 miles
Clouds Clear
Heat Index 85 °F
Dew Point 57 °F
Humidity 38%
Rainfall 0.00 in
Snow Depth Not available.
UV 7 out of 12
Pollen 7.30 out of 12
Air Quality Not available.
Flu Activity Not available.
METAR KLSE 302053Z 29015G23KT 10SM CLR 30/12 A3002 RMK AO2 SLP155 T03000117 56007

More Conditions Fewer Conditions

Pressure 29.99 in
Visibility 10.0 miles
Clouds Clear
Heat Index 85 °F
Dew Point 57 °F
Humidity 38%
Rainfall 0.00 in
Snow Depth Not available.
UV 7 out of 12
Pollen 7.30 out of 12
Air Quality Not available.
Flu Activity Not available.
METAR KLSE 302053Z 29015G23KT 10SM CLR 30/12 A3002 RMK AO2 SLP155 T03000117 56007

More Conditions Fewer Conditions

10-Day Weather Forecast

×

Almanac

Astronomy

Jul. 30, 2015 Rise Set
Actual Time
Civil Twilight
Nautical Twilight
Astronomical Twilight
Moon
Length of Visible Light
Length of Day
Tomorrow will be .
, % of the Moon is Illuminated

Today's Extremes

State Highs State Lows

Community

WunderPhotos

Upload Photos

1,842,510 photos uploaded!

WunderBlogs® & News

Nearby

Air Quality

  Air Quality AQ Index Pollutant
Not available.

Snow Depth

Station Depth Elevation

Earthquake Activity

City Distance Mag. Time & Date
Minimum magnitude displayed is 2.5.

Coastal Water Temperatures

Place Temperature

Stations

Nearby Weather Stations

Station Location Temp. Windchill Dew Point Humidity Wind Precip. Elev Updated Type